createdAt,value
2023-01-21T00:01:15.857Z,58.41
2023-01-21T00:03:44.172Z,58.48
2023-01-21T00:06:15.017Z,58.47
2023-01-21T00:08:43.199Z,58.64
2023-01-21T00:11:14.407Z,58.87
2023-01-21T00:13:42.685Z,58.77
2023-01-21T00:16:11.438Z,58.67
2023-01-21T00:18:39.591Z,58.58
2023-01-21T00:21:07.582Z,58.62
2023-01-21T00:23:37.029Z,58.67
2023-01-21T00:26:07.218Z,58.82
2023-01-21T00:28:37.173Z,59.10
2023-01-21T00:31:07.645Z,59.20
2023-01-21T00:33:37.238Z,59.29
2023-01-21T00:36:07.230Z,59.28
2023-01-21T00:38:37.105Z,59.42
2023-01-21T00:41:06.968Z,59.62
2023-01-21T00:43:35.465Z,59.63
2023-01-21T00:46:03.948Z,59.57
2023-01-21T00:48:32.213Z,59.80
2023-01-21T00:51:00.928Z,59.74
2023-01-21T00:53:30.080Z,59.67
2023-01-21T00:56:02.196Z,59.51
2023-01-21T00:58:34.637Z,59.42
2023-01-21T01:01:03.937Z,59.50
2023-01-21T01:03:32.333Z,59.44
2023-01-21T01:06:04.823Z,59.32
2023-01-21T01:08:33.482Z,59.41
2023-01-21T01:11:03.306Z,59.38
2023-01-21T01:13:31.991Z,59.34
2023-01-21T01:16:00.367Z,59.34
2023-01-21T01:18:30.322Z,59.38
2023-01-21T01:20:58.411Z,59.23
2023-01-21T01:23:26.951Z,59.32
2023-01-21T01:25:59.540Z,59.27
2023-01-21T01:28:29.672Z,59.48
2023-01-21T01:30:58.703Z,59.42
2023-01-21T01:33:27.897Z,59.34
2023-01-21T01:35:56.041Z,59.28
2023-01-21T01:38:24.184Z,59.25
2023-01-21T01:40:53.747Z,59.18
2023-01-21T01:43:24.195Z,59.22
2023-01-21T01:45:54.140Z,59.61
2023-01-21T01:48:25.989Z,60.05
2023-01-21T01:50:55.347Z,60.08
2023-01-21T01:53:23.819Z,60.38
2023-01-21T01:55:51.904Z,60.74
2023-01-21T01:58:22.215Z,60.50
2023-01-21T02:00:50.303Z,60.81
2023-01-21T02:03:37.380Z,60.79
2023-01-21T02:06:05.946Z,60.59
2023-01-21T02:08:36.316Z,60.52
2023-01-21T02:11:11.703Z,60.81
2023-01-21T02:13:40.552Z,60.61
2023-01-21T02:16:20.984Z,60.15
2023-01-21T02:18:57.320Z,60.02
2023-01-21T02:21:42.811Z,59.73
2023-01-21T02:24:56.795Z,59.48
2023-01-21T02:27:41.053Z,59.34
2023-01-21T02:30:38.963Z,59.30
2023-01-21T02:33:50.447Z,59.41
2023-01-21T02:36:32.903Z,59.09
2023-01-21T02:39:08.476Z,58.63
2023-01-21T02:41:51.889Z,59.07
2023-01-21T02:44:25.959Z,59.35
2023-01-21T02:47:00.511Z,59.41
2023-01-21T02:49:35.564Z,59.29
2023-01-21T02:52:03.658Z,59.49
2023-01-21T02:54:52.884Z,59.20
2023-01-21T02:57:35.853Z,59.33
2023-01-21T03:00:11.369Z,59.31
2023-01-21T03:03:14.352Z,59.16
2023-01-21T03:06:26.811Z,59.27
2023-01-21T03:08:58.769Z,59.69
2023-01-21T03:11:27.135Z,59.74
2023-01-21T03:14:16.953Z,59.57
2023-01-21T03:16:59.827Z,59.55
2023-01-21T03:19:35.591Z,59.62
2023-01-21T03:22:09.448Z,59.84
2023-01-21T03:24:39.536Z,59.68
2023-01-21T03:27:10.033Z,59.54
2023-01-21T03:29:42.233Z,59.45
2023-01-21T03:32:15.222Z,59.44
2023-01-21T03:34:48.656Z,59.44
2023-01-21T03:37:23.342Z,59.24
2023-01-21T03:40:00.269Z,59.10
2023-01-21T03:42:28.591Z,59.32
2023-01-21T03:44:56.910Z,59.42
2023-01-21T03:47:29.546Z,59.44
2023-01-21T03:50:01.742Z,59.57
2023-01-21T03:52:31.725Z,59.61
2023-01-21T03:55:00.501Z,59.54
2023-01-21T03:57:28.682Z,59.51
2023-01-21T03:59:56.691Z,59.39
2023-01-21T04:02:24.841Z,59.27
2023-01-21T04:04:53.237Z,59.18
2023-01-21T04:07:21.374Z,59.08
2023-01-21T04:09:50.841Z,58.92
2023-01-21T04:12:19.444Z,58.82
2023-01-21T04:14:47.433Z,58.72
2023-01-21T04:17:15.521Z,58.73
2023-01-21T04:19:43.582Z,58.70
2023-01-21T04:22:11.646Z,58.71
2023-01-21T04:24:39.656Z,58.77
2023-01-21T04:27:09.103Z,58.86
2023-01-21T04:29:37.163Z,58.96
2023-01-21T04:32:05.354Z,59.06
2023-01-21T04:34:33.460Z,59.15
2023-01-21T04:37:01.456Z,59.15
2023-01-21T04:39:29.527Z,59.11
2023-01-21T04:41:57.577Z,59.08
2023-01-21T04:44:27.020Z,59.08
2023-01-21T04:46:55.014Z,59.06
2023-01-21T04:49:23.067Z,59.04
2023-01-21T04:51:51.114Z,59.00
2023-01-21T04:54:19.226Z,58.85
2023-01-21T04:56:47.206Z,58.78
2023-01-21T04:59:15.347Z,58.74
2023-01-21T05:01:44.779Z,58.88
2023-01-21T05:04:12.784Z,58.80
2023-01-21T05:06:40.869Z,58.80
2023-01-21T05:09:09.064Z,58.85
2023-01-21T05:11:37.112Z,59.04
2023-01-21T05:14:05.101Z,59.03
2023-01-21T05:16:33.182Z,58.99
2023-01-21T05:19:05.112Z,58.81
2023-01-21T05:21:33.216Z,58.80
2023-01-21T05:24:01.295Z,59.09
2023-01-21T05:26:29.317Z,59.06
2023-01-21T05:28:57.455Z,59.25
2023-01-21T05:31:26.226Z,59.45
2023-01-21T05:33:54.359Z,59.76
2023-01-21T05:36:23.761Z,59.80
2023-01-21T05:38:51.796Z,59.68
2023-01-21T05:41:20.203Z,59.51
2023-01-21T05:43:48.277Z,59.38
2023-01-21T05:46:16.274Z,59.21
2023-01-21T05:48:44.385Z,59.07
2023-01-21T05:51:12.554Z,58.94
2023-01-21T05:53:41.948Z,58.55
2023-01-21T05:56:10.062Z,58.41
2023-01-21T05:58:38.069Z,58.32
2023-01-21T06:01:06.401Z,58.29
2023-01-21T06:03:35.675Z,58.29
2023-01-21T06:06:03.749Z,58.25
2023-01-21T06:08:31.838Z,58.20
2023-01-21T06:11:01.311Z,58.21
2023-01-21T06:13:29.565Z,58.20
2023-01-21T06:15:58.038Z,58.22
2023-01-21T06:18:26.569Z,58.30
2023-01-21T06:20:54.679Z,58.33
2023-01-21T06:23:22.697Z,58.25
2023-01-21T06:25:50.762Z,58.29
2023-01-21T06:28:20.113Z,58.45
2023-01-21T06:30:48.510Z,58.65
2023-01-21T06:33:16.559Z,58.87
2023-01-21T06:35:44.613Z,59.09
2023-01-21T06:38:12.584Z,59.13
2023-01-21T06:40:40.705Z,59.16
2023-01-21T06:43:09.118Z,59.16
2023-01-21T06:45:38.516Z,59.16
2023-01-21T06:48:06.799Z,59.26
2023-01-21T06:50:34.824Z,59.32
2023-01-21T06:53:02.830Z,59.35
2023-01-21T06:55:30.854Z,59.33
2023-01-21T06:57:58.895Z,59.29
2023-01-21T07:00:27.105Z,59.28
2023-01-21T07:02:58.831Z,59.12
2023-01-21T07:05:27.433Z,59.28
2023-01-21T07:07:56.238Z,59.39
2023-01-21T07:10:24.441Z,59.28
2023-01-21T07:12:53.422Z,59.40
2023-01-21T07:15:21.568Z,59.44
2023-01-21T07:17:49.594Z,59.44
2023-01-21T07:20:19.398Z,59.40
2023-01-21T07:22:47.453Z,59.32
2023-01-21T07:25:15.900Z,59.41
2023-01-21T07:27:44.137Z,59.40
2023-01-21T07:30:17.634Z,59.19
2023-01-21T07:32:46.086Z,59.28
2023-01-21T07:35:14.557Z,59.32
2023-01-21T07:37:44.136Z,59.28
2023-01-21T07:40:13.262Z,59.31
2023-01-21T07:42:41.321Z,59.29
2023-01-21T07:45:10.150Z,59.28
2023-01-21T07:47:38.155Z,59.38
2023-01-21T07:50:08.761Z,59.44
2023-01-21T07:52:37.029Z,59.58
2023-01-21T07:55:08.090Z,59.49
2023-01-21T07:57:36.215Z,59.41
2023-01-21T08:00:05.110Z,59.43
2023-01-21T08:02:39.576Z,59.44
2023-01-21T08:05:08.465Z,59.44
2023-01-21T08:07:36.631Z,59.39
2023-01-21T08:10:06.517Z,59.40
2023-01-21T08:12:34.601Z,59.38
2023-01-21T08:15:02.685Z,59.42
2023-01-21T08:17:30.794Z,59.43
2023-01-21T08:19:58.866Z,59.41
2023-01-21T08:22:26.998Z,59.41
2023-01-21T08:24:55.048Z,59.42
2023-01-21T08:27:24.589Z,59.49
2023-01-21T08:29:52.695Z,59.98
2023-01-21T08:32:20.876Z,59.89
2023-01-21T08:34:48.987Z,59.76
2023-01-21T08:37:17.076Z,59.73
2023-01-21T08:39:45.156Z,59.72
2023-01-21T08:42:13.198Z,59.69
2023-01-21T08:44:42.627Z,59.67
2023-01-21T08:47:10.671Z,59.65
2023-01-21T08:49:38.812Z,59.67
2023-01-21T08:52:07.054Z,59.72
2023-01-21T08:54:35.120Z,59.71
2023-01-21T08:57:03.203Z,59.69
2023-01-21T08:59:31.349Z,59.74
2023-01-21T09:02:00.816Z,59.99
2023-01-21T09:04:28.940Z,60.06
2023-01-21T09:06:57.029Z,59.92
2023-01-21T09:09:25.249Z,59.79
2023-01-21T09:11:53.544Z,59.81
2023-01-21T09:14:21.713Z,59.83
2023-01-21T09:16:50.437Z,59.78
2023-01-21T09:19:19.864Z,59.68
2023-01-21T09:21:47.942Z,59.67
2023-01-21T09:24:16.040Z,59.64
2023-01-21T09:26:45.068Z,59.68
2023-01-21T09:29:13.291Z,59.73
2023-01-21T09:31:41.515Z,59.68
2023-01-21T09:34:11.873Z,59.48
2023-01-21T09:36:41.465Z,59.50
2023-01-21T09:39:09.767Z,59.51
2023-01-21T09:41:39.739Z,59.41
2023-01-21T09:44:17.231Z,59.11
2023-01-21T09:46:52.508Z,59.37
2023-01-21T09:49:25.072Z,59.23
2023-01-21T09:52:02.377Z,59.39
2023-01-21T09:54:33.921Z,59.75
2023-01-21T09:57:20.189Z,59.29
2023-01-21T09:59:58.729Z,59.52
2023-01-21T10:02:31.733Z,59.67
2023-01-21T10:05:18.285Z,59.38
2023-01-21T10:07:54.183Z,59.62
2023-01-21T10:10:25.881Z,59.80
2023-01-21T10:13:05.706Z,59.64
2023-01-21T10:15:47.720Z,59.52
2023-01-21T10:18:19.610Z,59.57
2023-01-21T10:20:52.386Z,59.33
2023-01-21T10:23:27.126Z,59.70
2023-01-21T10:25:57.316Z,59.88
2023-01-21T10:28:30.510Z,59.61
2023-01-21T10:31:04.115Z,59.41
2023-01-21T10:33:34.267Z,60.26
2023-01-21T10:36:22.288Z,59.63
2023-01-21T10:39:02.414Z,59.16
2023-01-21T10:41:42.948Z,59.27
2023-01-21T10:44:20.253Z,58.99
2023-01-21T10:46:56.745Z,59.09
2023-01-21T10:49:33.186Z,58.99
2023-01-21T10:52:07.028Z,58.25
2023-01-21T10:54:46.199Z,58.02
2023-01-21T10:57:31.460Z,57.55
2023-01-21T11:00:02.714Z,57.76
2023-01-21T11:02:32.491Z,58.29
2023-01-21T11:05:03.350Z,57.87
2023-01-21T11:07:35.368Z,57.73
2023-01-21T11:10:07.095Z,57.29
2023-01-21T11:12:35.235Z,56.93
2023-01-21T11:15:09.158Z,55.50
2023-01-21T11:17:41.295Z,54.10
2023-01-21T11:20:21.764Z,54.59
2023-01-21T11:22:50.889Z,53.95
2023-01-21T11:25:36.924Z,53.23
2023-01-21T11:28:05.379Z,53.23
2023-01-21T11:30:50.202Z,52.90
2023-01-21T11:33:26.666Z,52.25
2023-01-21T11:35:56.069Z,53.36
2023-01-21T11:38:34.231Z,53.23
2023-01-21T11:41:06.677Z,52.05
2023-01-21T11:43:41.104Z,48.37
2023-01-21T11:46:42.095Z,48.19
2023-01-21T11:49:30.503Z,45.26
2023-01-21T11:52:19.803Z,43.00
2023-01-21T11:54:48.697Z,38.65
2023-01-21T11:57:28.948Z,37.59
2023-01-21T12:00:07.829Z,36.95
2023-01-21T12:02:43.624Z,35.14
2023-01-21T12:05:17.073Z,34.37
2023-01-21T12:07:50.536Z,35.56
2023-01-21T12:10:29.140Z,34.47
2023-01-21T12:13:20.106Z,33.17
2023-01-21T12:16:06.696Z,31.47
2023-01-21T12:18:48.692Z,30.59
2023-01-21T12:21:23.750Z,30.08
2023-01-21T12:24:05.370Z,30.94
2023-01-21T12:26:38.901Z,30.99
2023-01-21T12:29:34.249Z,30.66
2023-01-21T12:32:08.903Z,30.15
2023-01-21T12:34:43.425Z,29.76
2023-01-21T12:37:17.675Z,29.26
2023-01-21T12:39:48.543Z,28.52
2023-01-21T12:42:22.281Z,27.29
2023-01-21T12:44:56.132Z,28.26
2023-01-21T12:47:31.860Z,26.92
2023-01-21T12:50:19.833Z,25.64
2023-01-21T12:52:58.398Z,25.33
2023-01-21T12:55:33.462Z,25.67
2023-01-21T12:58:06.186Z,25.84
2023-01-21T13:00:38.557Z,26.23
2023-01-21T13:03:21.751Z,25.27
2023-01-21T13:05:55.963Z,26.14
2023-01-21T13:08:35.703Z,26.46
2023-01-21T13:11:08.657Z,27.23
2023-01-21T13:13:39.486Z,25.40
2023-01-21T13:16:11.161Z,25.40
2023-01-21T13:18:40.675Z,25.17
2023-01-21T13:21:17.232Z,25.88
2023-01-21T13:23:50.238Z,25.49
2023-01-21T13:26:24.866Z,26.26
2023-01-21T13:28:58.854Z,24.72
2023-01-21T13:31:35.432Z,24.56
2023-01-21T13:34:10.190Z,23.91
2023-01-21T13:36:52.746Z,25.38
2023-01-21T13:39:28.520Z,26.57
2023-01-21T13:42:08.993Z,27.77
2023-01-21T13:44:58.715Z,29.41
2023-01-21T13:47:42.248Z,30.45
2023-01-21T13:50:19.993Z,31.73
2023-01-21T13:53:06.997Z,32.90
2023-01-21T13:55:47.857Z,33.76
2023-01-21T13:58:20.773Z,34.41
2023-01-21T14:00:54.820Z,35.44
2023-01-21T14:03:30.179Z,36.37
2023-01-21T14:06:06.094Z,37.01
2023-01-21T14:08:37.140Z,37.39
2023-01-21T14:11:11.180Z,37.58
2023-01-21T14:14:08.237Z,38.03
2023-01-21T14:17:01.659Z,38.46
2023-01-21T14:19:55.331Z,39.00
2023-01-21T14:22:41.727Z,39.53
2023-01-21T14:25:23.805Z,39.86
2023-01-21T14:28:03.515Z,40.54
2023-01-21T14:30:38.557Z,40.75
2023-01-21T14:33:13.206Z,40.75
2023-01-21T14:35:48.928Z,40.94
2023-01-21T14:38:27.552Z,41.28
2023-01-21T14:41:06.656Z,41.47
2023-01-21T14:43:49.680Z,41.51
2023-01-21T14:46:26.829Z,41.60
2023-01-21T14:49:00.277Z,42.19
2023-01-21T14:51:31.760Z,42.41
2023-01-21T14:54:03.167Z,42.64
2023-01-21T14:56:33.540Z,43.13
2023-01-21T14:59:04.474Z,43.84
2023-01-21T15:01:38.835Z,44.34
2023-01-21T15:04:18.043Z,44.60
2023-01-21T15:06:48.472Z,44.36
2023-01-21T15:09:23.103Z,43.99
2023-01-21T15:11:56.739Z,43.99
2023-01-21T15:14:28.941Z,44.09
2023-01-21T15:16:57.149Z,44.54
2023-01-21T15:19:28.847Z,44.68
2023-01-21T15:22:38.917Z,44.64
2023-01-21T15:25:34.235Z,44.89
2023-01-21T15:28:35.897Z,44.96
2023-01-21T15:31:06.781Z,45.49
2023-01-21T15:33:40.221Z,45.82
2023-01-21T15:36:21.540Z,46.17
2023-01-21T15:38:51.930Z,46.48
2023-01-21T15:41:39.388Z,46.25
2023-01-21T15:44:46.188Z,46.63
2023-01-21T15:47:40.165Z,46.70
2023-01-21T15:50:18.583Z,47.24
2023-01-21T15:53:11.279Z,47.20
2023-01-21T15:56:01.379Z,48.16
2023-01-21T15:58:41.145Z,47.90
2023-01-21T16:01:15.947Z,48.02
2023-01-21T16:03:48.533Z,48.24
2023-01-21T16:06:26.777Z,48.54
2023-01-21T16:09:04.534Z,48.77
2023-01-21T16:11:57.131Z,48.94
2023-01-21T16:14:39.302Z,49.64
2023-01-21T16:17:18.885Z,49.63
2023-01-21T16:19:49.658Z,49.66
2023-01-21T16:22:22.805Z,49.57
2023-01-21T16:24:55.785Z,49.96
2023-01-21T16:27:27.418Z,49.98
2023-01-21T16:29:59.856Z,49.87
2023-01-21T16:32:28.070Z,49.84
2023-01-21T16:34:56.140Z,50.03
2023-01-21T16:37:26.185Z,50.08
2023-01-21T16:39:56.004Z,50.41
2023-01-21T16:42:32.707Z,50.43
2023-01-21T16:45:01.565Z,50.53
2023-01-21T16:47:37.627Z,50.30
2023-01-21T16:50:14.949Z,50.63
2023-01-21T16:52:43.116Z,50.72
2023-01-21T16:55:19.699Z,50.53
2023-01-21T16:57:52.937Z,50.81
2023-01-21T17:00:25.871Z,51.03
2023-01-21T17:02:54.963Z,51.43
2023-01-21T17:05:24.164Z,51.49
2023-01-21T17:07:55.990Z,51.53
2023-01-21T17:10:28.041Z,51.60
2023-01-21T17:13:02.629Z,51.39
2023-01-21T17:15:36.130Z,52.01
2023-01-21T17:18:07.194Z,52.36
2023-01-21T17:20:38.099Z,52.54
2023-01-21T17:23:09.809Z,52.56
2023-01-21T17:25:38.570Z,52.56
2023-01-21T17:28:30.252Z,52.48
2023-01-21T17:31:13.192Z,52.65
2023-01-21T17:33:41.884Z,53.01
2023-01-21T17:36:13.240Z,53.27
2023-01-21T17:38:44.285Z,53.38
2023-01-21T17:41:24.515Z,53.15
2023-01-21T17:43:56.673Z,53.27
2023-01-21T17:46:25.985Z,53.26
2023-01-21T17:48:58.884Z,53.28
2023-01-21T17:51:31.580Z,53.27
2023-01-21T17:54:02.203Z,53.30
2023-01-21T17:56:42.182Z,53.03
2023-01-21T17:59:31.589Z,53.07
2023-01-21T18:01:59.742Z,53.50
2023-01-21T18:04:27.914Z,53.56
2023-01-21T18:06:57.322Z,53.66
2023-01-21T18:09:28.298Z,53.72
2023-01-21T18:11:58.389Z,53.77
2023-01-21T18:14:29.038Z,53.84
2023-01-21T18:16:57.496Z,53.93
2023-01-21T18:19:32.313Z,53.91
2023-01-21T18:22:01.490Z,54.22
2023-01-21T18:24:41.847Z,54.03
2023-01-21T18:27:12.575Z,54.39
2023-01-21T18:29:42.839Z,54.42
2023-01-21T18:32:13.225Z,54.42
2023-01-21T18:34:41.288Z,54.49
2023-01-21T18:37:14.047Z,54.66
2023-01-21T18:39:42.645Z,54.79
2023-01-21T18:42:15.689Z,54.82
2023-01-21T18:44:45.574Z,55.20
2023-01-21T18:47:14.927Z,55.33
2023-01-21T18:49:43.418Z,55.29
2023-01-21T18:52:11.917Z,55.72
2023-01-21T18:54:39.946Z,55.66
2023-01-21T18:57:12.479Z,55.60
2023-01-21T18:59:40.511Z,55.66
2023-01-21T19:02:15.238Z,55.48
2023-01-21T19:04:43.449Z,55.75
2023-01-21T19:07:15.446Z,55.65
2023-01-21T19:09:46.116Z,55.67
2023-01-21T19:12:14.811Z,55.69
2023-01-21T19:14:42.891Z,55.70
2023-01-21T19:17:14.409Z,55.69
2023-01-21T19:19:42.692Z,55.89
2023-01-21T19:22:13.646Z,55.93
2023-01-21T19:24:42.171Z,55.97
2023-01-21T19:27:15.618Z,56.03
2023-01-21T19:29:43.897Z,56.18
2023-01-21T19:32:15.296Z,56.32
2023-01-21T19:34:43.968Z,56.39
2023-01-21T19:37:15.231Z,56.45
2023-01-21T19:39:43.607Z,56.52
2023-01-21T19:42:12.490Z,56.57
2023-01-21T19:44:44.284Z,57.01
2023-01-21T19:47:19.860Z,56.93
2023-01-21T19:49:47.967Z,57.31
2023-01-21T19:52:16.071Z,57.33
2023-01-21T19:54:46.751Z,57.19
2023-01-21T19:57:15.643Z,57.19
2023-01-21T19:59:45.117Z,57.55
2023-01-21T20:02:13.523Z,57.77
2023-01-21T20:04:43.098Z,57.73
2023-01-21T20:07:14.045Z,57.64
2023-01-21T20:09:42.142Z,57.69
2023-01-21T20:12:12.411Z,57.81
2023-01-21T20:14:40.466Z,57.84
2023-01-21T20:17:13.935Z,57.88
2023-01-21T20:19:43.386Z,58.09
2023-01-21T20:22:13.414Z,58.08
2023-01-21T20:24:41.461Z,58.15
2023-01-21T20:27:12.817Z,58.03
2023-01-21T20:29:49.621Z,58.16
2023-01-21T20:32:24.022Z,58.18
2023-01-21T20:34:53.532Z,58.22
2023-01-21T20:37:21.666Z,58.30
2023-01-21T20:39:49.743Z,58.23
2023-01-21T20:42:17.829Z,58.18
2023-01-21T20:44:45.913Z,58.32
2023-01-21T20:47:14.611Z,58.45
2023-01-21T20:49:43.467Z,58.69
2023-01-21T20:52:13.415Z,58.58
2023-01-21T20:54:41.724Z,58.61
2023-01-21T20:57:13.336Z,58.45
2023-01-21T20:59:41.477Z,58.29
2023-01-21T21:02:12.524Z,58.40
2023-01-21T21:04:40.978Z,58.47
2023-01-21T21:07:16.583Z,58.35
2023-01-21T21:09:44.683Z,58.53
2023-01-21T21:12:12.716Z,58.64
2023-01-21T21:14:40.754Z,58.58
2023-01-21T21:17:11.711Z,58.45
2023-01-21T21:19:39.743Z,58.56
2023-01-21T21:22:07.833Z,58.58
2023-01-21T21:24:37.273Z,58.67
2023-01-21T21:27:07.563Z,58.77
2023-01-21T21:29:35.649Z,58.92
2023-01-21T21:32:04.627Z,59.06
2023-01-21T21:34:32.797Z,59.28
2023-01-21T21:37:00.833Z,59.27
2023-01-21T21:39:28.943Z,59.28
2023-01-21T21:42:16.184Z,59.42
2023-01-21T21:44:44.901Z,59.61
2023-01-21T21:47:35.647Z,59.62
2023-01-21T21:50:03.849Z,59.67
2023-01-21T21:52:32.854Z,59.91
2023-01-21T21:55:00.894Z,59.97
2023-01-21T21:57:30.358Z,60.12
2023-01-21T21:59:58.346Z,60.01
2023-01-21T22:02:26.514Z,60.04
2023-01-21T22:04:54.962Z,60.10
2023-01-21T22:07:23.056Z,60.39
2023-01-21T22:09:51.068Z,60.49
2023-01-21T22:12:19.081Z,60.54
2023-01-21T22:14:48.566Z,60.68
2023-01-21T22:17:16.727Z,60.87
2023-01-21T22:19:44.768Z,61.24
2023-01-21T22:22:12.766Z,61.31
2023-01-21T22:24:40.872Z,61.61
2023-01-21T22:27:08.883Z,61.61
2023-01-21T22:29:36.924Z,61.73
2023-01-21T22:32:06.552Z,61.83
2023-01-21T22:34:34.650Z,61.85
2023-01-21T22:37:02.738Z,61.69
2023-01-21T22:39:31.231Z,61.63
2023-01-21T22:42:00.257Z,61.98
2023-01-21T22:44:28.396Z,61.79
2023-01-21T22:46:56.551Z,61.79
2023-01-21T22:49:25.988Z,61.71
2023-01-21T22:51:55.056Z,61.70
2023-01-21T22:54:23.108Z,61.60
2023-01-21T22:56:53.026Z,61.50
2023-01-21T22:59:22.013Z,61.51
2023-01-21T23:01:51.212Z,61.48
2023-01-21T23:04:19.373Z,61.43
2023-01-21T23:06:51.179Z,61.41
2023-01-21T23:09:19.258Z,61.38
2023-01-21T23:11:47.439Z,61.47
2023-01-21T23:14:16.547Z,61.40
2023-01-21T23:16:44.615Z,61.33
2023-01-21T23:19:13.522Z,61.18
2023-01-21T23:21:41.618Z,61.13
2023-01-21T23:24:11.283Z,61.08
2023-01-21T23:26:39.391Z,60.99
2023-01-21T23:29:07.404Z,61.12
2023-01-21T23:31:35.825Z,60.95
2023-01-21T23:34:04.369Z,60.75
2023-01-21T23:36:32.429Z,60.79
2023-01-21T23:39:00.467Z,60.75
2023-01-21T23:41:29.943Z,60.68
2023-01-21T23:43:59.759Z,60.59
2023-01-21T23:46:27.971Z,60.67
2023-01-21T23:48:56.109Z,60.81
2023-01-21T23:51:24.223Z,60.92
2023-01-21T23:53:52.311Z,60.93
2023-01-21T23:56:22.798Z,60.94
2023-01-21T23:58:53.045Z,60.75
